Time;durP1;ratioP1;P1;durP2;ratioP2;P2;SDS_P1;SDS_P2;PMS_P1;PMS_P2;Temp;Humidity;BMP_temperature;BMP_pressure;BME280_temperature;BME280_humidity;BME280_pressure;Samples;Min_cycle;Max_cycle;Signal;HPM_P1;HPM_P2
2022/03/17 00:00:16;;;;;;;31.23;25.88;;;;;;;;;;4960786;28;24429;-51
2022/03/17 00:02:41;;;;;;;30.40;25.98;;;;;;;;;;4951527;28;24497;-50
2022/03/17 00:05:10;;;;;;;31.40;26.63;;;;;;;;;;4961125;28;24456;-51
2022/03/17 00:07:36;;;;;;;33.67;27.08;;;;;;;;;;4966912;28;24541;-50
2022/03/17 00:10:02;;;;;;;31.30;26.15;;;;;;;;;;4960942;28;24496;-50
2022/03/17 00:12:28;;;;;;;30.25;25.17;;;;;;;;;;4955584;28;24959;-50
2022/03/17 00:14:53;;;;;;;28.70;24.63;;;;;;;;;;4958767;28;24785;-52
2022/03/17 00:17:18;;;;;;;31.30;25.07;;;;;;;;;;4952567;28;24485;-50
2022/03/17 00:19:43;;;;;;;31.40;26.30;;;;;;;;;;4961379;28;24558;-50
2022/03/17 00:22:09;;;;;;;30.55;26.30;;;;;;;;;;4954413;28;24421;-50
2022/03/17 00:24:35;;;;;;;32.20;26.70;;;;;;;;;;4965482;28;24501;-50
2022/03/17 00:27:01;;;;;;;31.45;26.30;;;;;;;;;;4963407;28;24458;-50
2022/03/17 00:29:27;;;;;;;32.45;25.35;;;;;;;;;;4956858;28;24433;-50
2022/03/17 00:31:52;;;;;;;33.28;26.00;;;;;;;;;;4955750;28;24413;-50
2022/03/17 00:34:17;;;;;;;32.34;26.16;;;;;;;;;;4956046;28;24624;-51
2022/03/17 00:36:42;;;;;;;32.28;26.20;;;;;;;;;;4965628;28;24960;-50
2022/03/17 00:39:08;;;;;;;37.15;29.10;;;;;;;;;;4965285;28;24417;-50
2022/03/17 00:41:34;;;;;;;36.08;30.13;;;;;;;;;;4956918;28;25019;-50
2022/03/17 00:43:59;;;;;;;33.80;27.53;;;;;;;;;;4959252;28;24429;-53
2022/03/17 00:46:24;;;;;;;34.97;28.80;;;;;;;;;;4956361;28;24444;-51
2022/03/17 00:48:49;;;;;;;33.83;27.43;;;;;;;;;;4963039;28;24453;-51
2022/03/17 00:51:15;;;;;;;32.37;26.17;;;;;;;;;;4962418;28;24965;-51
2022/03/17 00:53:40;;;;;;;31.25;25.83;;;;;;;;;;4952476;28;24425;-50
2022/03/17 00:56:05;;;;;;;31.10;26.00;;;;;;;;;;4954699;28;24425;-51
2022/03/17 00:58:30;;;;;;;32.25;26.73;;;;;;;;;;4948591;28;24465;-51
2022/03/17 01:00:56;;;;;;;31.13;25.70;;;;;;;;;;4963706;28;24761;-51
2022/03/17 01:03:21;;;;;;;30.60;25.43;;;;;;;;;;4963775;28;24507;-50
2022/03/17 01:05:46;;;;;;;32.13;25.10;;;;;;;;;;4957353;28;25020;-50
2022/03/17 01:08:11;;;;;;;31.52;26.08;;;;;;;;;;4965106;28;24451;-51
2022/03/17 01:10:38;;;;;;;32.65;26.80;;;;;;;;;;4966897;28;24780;-50
2022/03/17 01:13:04;;;;;;;32.78;27.05;;;;;;;;;;4958987;28;24417;-51
2022/03/17 01:15:30;;;;;;;32.00;27.13;;;;;;;;;;4951931;28;24801;-51
2022/03/17 01:17:55;;;;;;;29.67;24.92;;;;;;;;;;4963332;28;24464;-50
2022/03/17 01:20:20;;;;;;;30.88;25.90;;;;;;;;;;4967057;28;24465;-51
2022/03/17 01:22:45;;;;;;;32.90;27.27;;;;;;;;;;4965952;28;24422;-51
2022/03/17 01:25:11;;;;;;;35.00;27.57;;;;;;;;;;4955954;28;24574;-51
2022/03/17 01:27:36;;;;;;;34.07;27.43;;;;;;;;;;4951796;28;24438;-50
2022/03/17 01:30:02;;;;;;;34.20;27.40;;;;;;;;;;4953479;28;24417;-51
2022/03/17 01:32:28;;;;;;;33.10;26.40;;;;;;;;;;4962663;28;24516;-50
2022/03/17 01:34:53;;;;;;;33.17;27.00;;;;;;;;;;4962708;28;24871;-51
2022/03/17 01:37:19;;;;;;;33.33;27.70;;;;;;;;;;4956159;28;24414;-50
2022/03/17 01:39:44;;;;;;;33.80;27.80;;;;;;;;;;4961490;28;24447;-51
2022/03/17 01:42:10;;;;;;;33.83;27.95;;;;;;;;;;4960492;28;24433;-51
2022/03/17 01:44:35;;;;;;;33.33;27.95;;;;;;;;;;4958053;28;24932;-51
2022/03/17 01:49:44;;;;;;;33.65;27.98;;;;;;;;;;4958226;28;24983;-50
2022/03/17 01:52:09;;;;;;;36.23;28.07;;;;;;;;;;4963994;28;24421;-50
2022/03/17 01:54:35;;;;;;;34.73;28.47;;;;;;;;;;4965740;28;24406;-51
2022/03/17 01:57:01;;;;;;;33.78;26.50;;;;;;;;;;4963404;28;24465;-51
2022/03/17 01:59:27;;;;;;;33.58;27.80;;;;;;;;;;4953296;28;24422;-53
2022/03/17 02:01:55;;;;;;;32.80;27.10;;;;;;;;;;4952480;28;24962;-52
2022/03/17 02:04:21;;;;;;;33.03;28.02;;;;;;;;;;4949857;28;25011;-51
2022/03/17 02:06:47;;;;;;;34.20;27.90;;;;;;;;;;4965224;28;24836;-51
2022/03/17 02:09:13;;;;;;;36.53;28.55;;;;;;;;;;4958817;28;24448;-50
2022/03/17 02:14:26;;;;;;;32.13;27.73;;;;;;;;;;4954781;28;24464;-51
2022/03/17 02:16:51;;;;;;;33.80;27.63;;;;;;;;;;4954965;28;24444;-50
2022/03/17 02:19:17;;;;;;;34.20;27.10;;;;;;;;;;4960060;28;25024;-50
2022/03/17 02:21:44;;;;;;;32.65;26.98;;;;;;;;;;4959773;28;24437;-50
2022/03/17 02:26:53;;;;;;;32.42;26.98;;;;;;;;;;4963142;28;24409;-51
2022/03/17 02:29:18;;;;;;;33.65;27.80;;;;;;;;;;4952481;28;24797;-51
2022/03/17 02:31:44;;;;;;;33.53;27.42;;;;;;;;;;4948644;28;24447;-51
2022/03/17 02:34:09;;;;;;;33.13;27.92;;;;;;;;;;4951974;28;24994;-51
2022/03/17 02:36:34;;;;;;;34.73;28.00;;;;;;;;;;4963939;28;24516;-51
2022/03/17 02:38:59;;;;;;;33.83;27.80;;;;;;;;;;4958439;28;24477;-51
2022/03/17 02:41:24;;;;;;;34.38;28.77;;;;;;;;;;4964426;28;24414;-51
2022/03/17 02:43:50;;;;;;;36.20;28.85;;;;;;;;;;4952487;28;24424;-51
2022/03/17 02:46:16;;;;;;;35.77;29.97;;;;;;;;;;4958403;28;24990;-52
2022/03/17 02:48:41;;;;;;;35.60;29.23;;;;;;;;;;4964815;28;24536;-50
2022/03/17 02:51:06;;;;;;;35.63;29.00;;;;;;;;;;4952531;28;24575;-51
2022/03/17 02:53:31;;;;;;;34.45;27.85;;;;;;;;;;4960991;28;24410;-51
2022/03/17 02:55:56;;;;;;;33.95;27.80;;;;;;;;;;4963471;28;24505;-50
2022/03/17 02:58:21;;;;;;;34.65;28.02;;;;;;;;;;4951970;28;24434;-51
2022/03/17 03:00:47;;;;;;;36.22;28.10;;;;;;;;;;4953157;28;24822;-51
2022/03/17 03:03:17;;;;;;;36.05;28.73;;;;;;;;;;4953772;28;24448;-51
2022/03/17 03:05:42;;;;;;;37.92;29.85;;;;;;;;;;4956339;28;24410;-51
2022/03/17 03:08:07;;;;;;;36.55;28.80;;;;;;;;;;4960565;28;24441;-51
2022/03/17 03:10:33;;;;;;;36.30;29.50;;;;;;;;;;4953088;28;24444;-51
2022/03/17 03:12:58;;;;;;;36.17;30.08;;;;;;;;;;4968717;28;24430;-51
2022/03/17 03:15:23;;;;;;;34.80;29.03;;;;;;;;;;4961290;28;24414;-51
2022/03/17 03:17:49;;;;;;;36.85;30.45;;;;;;;;;;4952367;28;24711;-50
2022/03/17 03:20:14;;;;;;;40.13;31.70;;;;;;;;;;4960527;28;24472;-50
2022/03/17 03:22:39;;;;;;;41.17;32.70;;;;;;;;;;4957339;28;24774;-50
2022/03/17 03:25:08;;;;;;;40.13;32.10;;;;;;;;;;4961048;28;25026;-50
2022/03/17 03:27:34;;;;;;;39.78;32.08;;;;;;;;;;4955471;28;24410;-50
2022/03/17 03:29:59;;;;;;;41.22;33.15;;;;;;;;;;4954919;28;24820;-51
2022/03/17 03:32:25;;;;;;;40.07;32.50;;;;;;;;;;4959051;28;25070;-50
2022/03/17 03:34:50;;;;;;;40.72;32.17;;;;;;;;;;4964750;28;24521;-50
2022/03/17 03:37:25;;;;;;;42.33;33.67;;;;;;;;;;4964265;28;24496;-51
2022/03/17 03:39:55;;;;;;;42.97;33.10;;;;;;;;;;4960560;28;24422;-51
2022/03/17 03:42:20;;;;;;;40.83;32.10;;;;;;;;;;4955415;28;25122;-51
2022/03/17 03:44:46;;;;;;;43.03;34.50;;;;;;;;;;4954850;28;24968;-50
2022/03/17 03:47:11;;;;;;;40.73;34.50;;;;;;;;;;4956006;28;24524;-51
2022/03/17 03:49:41;;;;;;;43.97;35.20;;;;;;;;;;4954337;28;24546;-50
2022/03/17 03:52:07;;;;;;;45.13;35.67;;;;;;;;;;4956348;28;24417;-50
2022/03/17 03:54:32;;;;;;;44.63;35.72;;;;;;;;;;4968958;28;24824;-51
2022/03/17 03:56:57;;;;;;;43.97;35.30;;;;;;;;;;4965359;28;24983;-50
2022/03/17 03:59:26;;;;;;;45.20;35.63;;;;;;;;;;4967884;28;24421;-50
2022/03/17 04:01:53;;;;;;;45.42;36.67;;;;;;;;;;4962542;28;24522;-50
2022/03/17 04:04:19;;;;;;;48.00;37.77;;;;;;;;;;4962747;28;24456;-50
2022/03/17 04:06:45;;;;;;;45.65;36.75;;;;;;;;;;4964366;28;24528;-51
2022/03/17 04:09:12;;;;;;;45.35;37.03;;;;;;;;;;4966427;28;24509;-50
2022/03/17 04:11:37;;;;;;;43.20;35.50;;;;;;;;;;4960631;28;25292;-51
2022/03/17 04:14:02;;;;;;;43.27;34.47;;;;;;;;;;4949559;28;24446;-51
2022/03/17 04:16:28;;;;;;;45.00;34.42;;;;;;;;;;4961567;28;25018;-51
2022/03/17 04:18:53;;;;;;;46.20;36.85;;;;;;;;;;4960773;28;24461;-51
2022/03/17 04:21:18;;;;;;;42.50;34.40;;;;;;;;;;4965358;28;24525;-50
2022/03/17 04:23:43;;;;;;;43.93;36.03;;;;;;;;;;4960003;28;24481;-51
2022/03/17 04:26:08;;;;;;;43.13;34.80;;;;;;;;;;4957947;28;24980;-50
2022/03/17 04:28:34;;;;;;;46.10;38.20;;;;;;;;;;4961921;28;24440;-51
2022/03/17 04:30:59;;;;;;;42.20;35.78;;;;;;;;;;4961539;28;24469;-50
2022/03/17 04:33:24;;;;;;;46.33;37.17;;;;;;;;;;4958279;28;24488;-51
2022/03/17 04:35:49;;;;;;;44.80;35.60;;;;;;;;;;4962921;28;24433;-51
2022/03/17 04:38:16;;;;;;;44.67;37.40;;;;;;;;;;4950180;28;24426;-51
2022/03/17 04:40:46;;;;;;;41.20;34.25;;;;;;;;;;4954284;28;24421;-50
2022/03/17 04:43:12;;;;;;;44.10;34.50;;;;;;;;;;4965263;28;24493;-50
2022/03/17 04:45:38;;;;;;;43.23;35.63;;;;;;;;;;4954372;28;24418;-51
2022/03/17 04:48:03;;;;;;;46.47;37.05;;;;;;;;;;4967300;28;25022;-51
2022/03/17 04:50:28;;;;;;;43.53;35.87;;;;;;;;;;4960615;28;25010;-51
2022/03/17 04:55:37;;;;;;;41.65;35.83;;;;;;;;;;4962224;28;24452;-51
2022/03/17 04:58:02;;;;;;;44.60;35.75;;;;;;;;;;4964144;28;24449;-51
2022/03/17 05:00:27;;;;;;;45.22;37.30;;;;;;;;;;4959521;28;24438;-51
2022/03/17 05:02:52;;;;;;;47.15;37.33;;;;;;;;;;4958818;28;24425;-51
2022/03/17 05:05:18;;;;;;;44.88;36.03;;;;;;;;;;4965958;28;24476;-51
2022/03/17 05:07:43;;;;;;;43.53;36.40;;;;;;;;;;4963407;28;24496;-51
2022/03/17 05:10:09;;;;;;;46.03;37.58;;;;;;;;;;4959940;28;25126;-51
2022/03/17 05:12:34;;;;;;;47.65;38.70;;;;;;;;;;4952089;28;24418;-51
2022/03/17 05:14:59;;;;;;;51.47;41.60;;;;;;;;;;4960424;28;25682;-51
2022/03/17 05:17:24;;;;;;;50.63;41.50;;;;;;;;;;4955581;28;24469;-51
2022/03/17 05:19:50;;;;;;;51.33;40.10;;;;;;;;;;4960286;28;24445;-51
2022/03/17 05:22:15;;;;;;;48.75;39.03;;;;;;;;;;4965206;28;24513;-51
2022/03/17 05:24:40;;;;;;;48.67;40.20;;;;;;;;;;4957709;28;24976;-51
2022/03/17 05:27:05;;;;;;;50.73;41.50;;;;;;;;;;4961711;28;24517;-52
2022/03/17 05:29:30;;;;;;;51.38;38.95;;;;;;;;;;4955992;28;24516;-51
2022/03/17 05:31:55;;;;;;;53.05;41.53;;;;;;;;;;4960463;28;24788;-51
2022/03/17 05:34:21;;;;;;;51.57;41.50;;;;;;;;;;4952248;28;24412;-51
2022/03/17 05:36:46;;;;;;;48.90;41.40;;;;;;;;;;4973237;28;24411;-51
2022/03/17 05:39:11;;;;;;;49.23;40.00;;;;;;;;;;4957566;28;24448;-51
2022/03/17 05:41:36;;;;;;;51.67;41.90;;;;;;;;;;4949873;28;24422;-51
2022/03/17 05:44:01;;;;;;;47.80;40.10;;;;;;;;;;4959233;28;24533;-52
2022/03/17 05:46:27;;;;;;;51.40;43.17;;;;;;;;;;4963498;28;25017;-51
2022/03/17 05:48:52;;;;;;;50.30;41.60;;;;;;;;;;4962593;28;24880;-51
2022/03/17 05:51:17;;;;;;;51.58;40.95;;;;;;;;;;4961935;28;24974;-52
2022/03/17 05:53:43;;;;;;;51.03;40.37;;;;;;;;;;4947068;28;24425;-51
2022/03/17 05:56:08;;;;;;;52.37;42.63;;;;;;;;;;4952671;28;24414;-51
2022/03/17 05:58:33;;;;;;;47.70;40.17;;;;;;;;;;4963581;28;24417;-51
2022/03/17 06:00:59;;;;;;;46.63;38.63;;;;;;;;;;4948966;28;24489;-51
2022/03/17 06:03:24;;;;;;;50.45;41.15;;;;;;;;;;4947359;28;24434;-52
2022/03/17 06:05:49;;;;;;;47.85;38.20;;;;;;;;;;4963271;28;25023;-51
2022/03/17 06:08:15;;;;;;;50.67;41.35;;;;;;;;;;4954411;28;24505;-52
2022/03/17 06:10:40;;;;;;;49.35;40.58;;;;;;;;;;4953473;28;24428;-52
2022/03/17 06:13:05;;;;;;;46.50;38.20;;;;;;;;;;4963161;28;25061;-51
2022/03/17 06:15:31;;;;;;;47.10;40.10;;;;;;;;;;4957089;28;24496;-51
2022/03/17 06:18:00;;;;;;;48.60;40.47;;;;;;;;;;4958779;28;24418;-52
2022/03/17 06:20:26;;;;;;;46.55;38.00;;;;;;;;;;4957593;28;25023;-50
2022/03/17 06:22:53;;;;;;;45.58;38.65;;;;;;;;;;4952617;28;24746;-50
2022/03/17 06:25:19;;;;;;;45.95;38.88;;;;;;;;;;4965232;28;24426;-51
2022/03/17 06:27:46;;;;;;;48.33;39.97;;;;;;;;;;4967689;28;25205;-52
2022/03/17 06:30:12;;;;;;;47.63;38.22;;;;;;;;;;4968076;28;24405;-51
2022/03/17 06:32:41;;;;;;;46.13;38.53;;;;;;;;;;4967308;28;24420;-51
2022/03/17 06:35:07;;;;;;;48.30;39.45;;;;;;;;;;4967761;28;24425;-51
2022/03/17 06:37:32;;;;;;;45.38;37.75;;;;;;;;;;4968218;28;24405;-52
2022/03/17 06:39:57;;;;;;;49.47;41.80;;;;;;;;;;4967834;28;24401;-51
2022/03/17 06:42:22;;;;;;;49.63;40.40;;;;;;;;;;4967107;28;24960;-52
2022/03/17 06:44:48;;;;;;;50.10;41.50;;;;;;;;;;4967972;28;24398;-52
2022/03/17 06:47:13;;;;;;;50.90;41.77;;;;;;;;;;4970165;28;25138;-51
2022/03/17 06:49:38;;;;;;;47.58;40.00;;;;;;;;;;4971525;28;24983;-51
2022/03/17 06:52:04;;;;;;;49.17;40.15;;;;;;;;;;4971404;28;24976;-51
2022/03/17 06:54:29;;;;;;;49.20;40.77;;;;;;;;;;4970128;28;24421;-51
2022/03/17 06:56:54;;;;;;;48.30;39.50;;;;;;;;;;4971593;28;24470;-51
2022/03/17 06:59:19;;;;;;;47.13;40.90;;;;;;;;;;4962820;28;24452;-52
2022/03/17 07:01:44;;;;;;;51.88;42.03;;;;;;;;;;4975289;28;25018;-51
2022/03/17 07:04:09;;;;;;;47.63;39.70;;;;;;;;;;4983335;28;24450;-52
2022/03/17 07:06:35;;;;;;;49.47;41.53;;;;;;;;;;4964879;28;24413;-51
2022/03/17 07:09:00;;;;;;;47.57;41.10;;;;;;;;;;4969979;28;24588;-51
2022/03/17 07:11:25;;;;;;;48.08;40.17;;;;;;;;;;4953937;28;24419;-52
2022/03/17 07:13:50;;;;;;;47.28;39.95;;;;;;;;;;4971070;28;24987;-51
2022/03/17 07:16:15;;;;;;;47.10;39.87;;;;;;;;;;4969787;28;24418;-51
2022/03/17 07:18:40;;;;;;;46.73;40.13;;;;;;;;;;4972164;28;24433;-52
2022/03/17 07:21:07;;;;;;;47.97;40.60;;;;;;;;;;4970420;28;24476;-52
2022/03/17 07:23:32;;;;;;;49.53;42.78;;;;;;;;;;4969735;28;24422;-52
2022/03/17 07:25:57;;;;;;;44.10;37.78;;;;;;;;;;4951946;28;24440;-52
2022/03/17 07:28:22;;;;;;;47.25;39.97;;;;;;;;;;4959871;28;24445;-52
2022/03/17 07:30:48;;;;;;;46.10;39.83;;;;;;;;;;4969529;28;24508;-51
2022/03/17 07:33:13;;;;;;;46.17;40.25;;;;;;;;;;4965526;28;24425;-58
2022/03/17 07:35:38;;;;;;;43.13;37.63;;;;;;;;;;4970938;28;24409;-52
2022/03/17 07:38:05;;;;;;;42.47;37.78;;;;;;;;;;4970814;28;24406;-53
2022/03/17 07:40:30;;;;;;;47.53;40.65;;;;;;;;;;4970777;28;24397;-52
2022/03/17 07:42:55;;;;;;;41.13;36.30;;;;;;;;;;4962444;28;24484;-51
2022/03/17 07:45:20;;;;;;;47.83;41.43;;;;;;;;;;4963481;28;24433;-52
2022/03/17 07:47:50;;;;;;;47.37;41.23;;;;;;;;;;4958502;28;24801;-52
2022/03/17 07:50:15;;;;;;;47.10;40.63;;;;;;;;;;4968859;28;24398;-52
2022/03/17 07:52:40;;;;;;;44.67;38.33;;;;;;;;;;4955874;28;24792;-53
2022/03/17 07:55:06;;;;;;;44.40;38.50;;;;;;;;;;4955586;28;24422;-51
2022/03/17 07:57:32;;;;;;;46.75;41.72;;;;;;;;;;4950434;28;24506;-52
2022/03/17 07:59:57;;;;;;;45.33;39.28;;;;;;;;;;4969011;28;24386;-52
2022/03/17 08:02:22;;;;;;;49.90;43.10;;;;;;;;;;4970313;28;24397;-52
2022/03/17 08:04:50;;;;;;;50.70;43.77;;;;;;;;;;4968435;28;24984;-51
2022/03/17 08:07:15;;;;;;;48.07;42.73;;;;;;;;;;4970094;28;24413;-52
2022/03/17 08:09:40;;;;;;;47.90;42.23;;;;;;;;;;4970604;28;24414;-52
2022/03/17 08:12:06;;;;;;;48.47;41.65;;;;;;;;;;4968751;28;24405;-52
2022/03/17 08:14:31;;;;;;;47.43;40.93;;;;;;;;;;4957979;28;24840;-52
2022/03/17 08:16:56;;;;;;;50.40;41.17;;;;;;;;;;4951110;28;24394;-52
2022/03/17 08:19:22;;;;;;;46.50;41.40;;;;;;;;;;4950806;28;24905;-52
2022/03/17 08:21:47;;;;;;;53.33;42.45;;;;;;;;;;4950409;28;24386;-53
2022/03/17 08:24:13;;;;;;;50.67;42.60;;;;;;;;;;4956605;28;24538;-52
2022/03/17 08:26:38;;;;;;;52.72;44.78;;;;;;;;;;4968208;28;24912;-51
2022/03/17 08:29:04;;;;;;;52.87;44.37;;;;;;;;;;4969501;28;24518;-52
2022/03/17 08:31:30;;;;;;;49.65;42.78;;;;;;;;;;4969926;28;24924;-51
2022/03/17 08:33:56;;;;;;;49.30;42.70;;;;;;;;;;4969686;28;24416;-52
2022/03/17 08:36:22;;;;;;;49.80;40.85;;;;;;;;;;4969114;28;24433;-52
2022/03/17 08:38:47;;;;;;;49.47;43.93;;;;;;;;;;4970118;28;24398;-52
2022/03/17 08:41:12;;;;;;;49.20;42.50;;;;;;;;;;4965854;28;24477;-52
2022/03/17 08:43:37;;;;;;;48.33;43.13;;;;;;;;;;4969616;28;24765;-52
2022/03/17 08:49:36;;;;;;;48.78;41.97;;;;;;;;;;4961350;28;24455;-51
2022/03/17 08:51:42;;;;;;;50.05;44.30;;;;;;;;;;4966306;28;24966;-52
2022/03/17 08:54:07;;;;;;;49.00;43.80;;;;;;;;;;4969595;28;24481;-52
2022/03/17 08:56:33;;;;;;;49.67;43.50;;;;;;;;;;4953265;28;24639;-52
2022/03/17 08:58:58;;;;;;;47.45;42.35;;;;;;;;;;4949973;28;24401;-52
2022/03/17 09:01:23;;;;;;;48.67;41.95;;;;;;;;;;4949797;28;24485;-52
2022/03/17 09:03:49;;;;;;;47.53;42.43;;;;;;;;;;4949704;28;24428;-52
2022/03/17 09:06:14;;;;;;;45.80;40.83;;;;;;;;;;4958270;28;24414;-52
2022/03/17 09:08:42;;;;;;;48.27;42.97;;;;;;;;;;4968624;28;24449;-52
2022/03/17 09:11:07;;;;;;;48.03;42.30;;;;;;;;;;4965141;28;24473;-52
2022/03/17 09:13:33;;;;;;;46.00;40.40;;;;;;;;;;4969541;28;24406;-52
2022/03/17 09:15:58;;;;;;;47.30;42.10;;;;;;;;;;4968105;28;24396;-52
2022/03/17 09:18:23;;;;;;;46.30;41.30;;;;;;;;;;4969066;28;25259;-55
2022/03/17 09:20:49;;;;;;;47.70;42.60;;;;;;;;;;4968928;28;24404;-51
2022/03/17 09:23:14;;;;;;;47.43;42.30;;;;;;;;;;4968678;28;24460;-52
2022/03/17 09:25:40;;;;;;;47.08;41.92;;;;;;;;;;4968941;28;24408;-51
2022/03/17 09:28:05;;;;;;;47.95;42.75;;;;;;;;;;4967387;28;24448;-52
2022/03/17 09:30:31;;;;;;;47.23;42.33;;;;;;;;;;4968860;28;24448;-51
2022/03/17 09:32:58;;;;;;;46.38;41.38;;;;;;;;;;4968310;28;24460;-52
2022/03/17 09:35:24;;;;;;;43.05;38.45;;;;;;;;;;4969016;28;24435;-52
2022/03/17 09:37:49;;;;;;;49.87;44.57;;;;;;;;;;4967344;28;24430;-52
2022/03/17 09:40:14;;;;;;;47.00;42.00;;;;;;;;;;4966833;28;24444;-52
2022/03/17 09:42:40;;;;;;;49.70;44.30;;;;;;;;;;4968696;28;24468;-52
2022/03/17 09:45:06;;;;;;;48.30;43.20;;;;;;;;;;4968472;28;24480;-52
2022/03/17 09:47:33;;;;;;;48.00;42.90;;;;;;;;;;4967876;28;24465;-51
2022/03/17 09:49:59;;;;;;;46.40;41.60;;;;;;;;;;4968175;28;24840;-51
2022/03/17 09:52:25;;;;;;;47.60;42.90;;;;;;;;;;4966697;28;24820;-51
2022/03/17 09:54:51;;;;;;;43.60;39.10;;;;;;;;;;4968422;28;24416;-51
2022/03/17 09:57:16;;;;;;;44.30;39.60;;;;;;;;;;4968483;28;24394;-50
2022/03/17 09:59:45;;;;;;;46.58;41.83;;;;;;;;;;4967344;28;24784;-50
2022/03/17 10:02:12;;;;;;;47.67;42.67;;;;;;;;;;4968534;28;24503;-51
2022/03/17 10:04:39;;;;;;;45.28;40.65;;;;;;;;;;4968256;28;24934;-51
2022/03/17 10:07:04;;;;;;;45.23;40.53;;;;;;;;;;4968389;28;24402;-50
2022/03/17 10:09:29;;;;;;;45.50;40.90;;;;;;;;;;4967017;28;24440;-51
2022/03/17 10:12:01;;;;;;;45.20;40.37;;;;;;;;;;4968075;28;24975;-51
2022/03/17 10:14:39;;;;;;;47.28;42.30;;;;;;;;;;4967869;28;24484;-51
2022/03/17 10:17:06;;;;;;;46.20;41.55;;;;;;;;;;4968198;28;24473;-51
2022/03/17 10:19:32;;;;;;;42.60;38.30;;;;;;;;;;4966685;28;24406;-51
2022/03/17 10:22:05;;;;;;;44.03;39.50;;;;;;;;;;4964110;28;24711;-50
2022/03/17 10:24:33;;;;;;;37.35;33.42;;;;;;;;;;4952995;28;24652;-50
2022/03/17 10:26:59;;;;;;;44.10;39.53;;;;;;;;;;4952910;28;24984;-51
2022/03/17 10:29:27;;;;;;;42.92;38.45;;;;;;;;;;4952520;28;24525;-51
2022/03/17 10:31:54;;;;;;;42.80;38.30;;;;;;;;;;4954329;28;24410;-50
2022/03/17 10:34:20;;;;;;;42.88;38.28;;;;;;;;;;4971960;28;24792;-50
2022/03/17 10:36:45;;;;;;;43.87;39.17;;;;;;;;;;4972259;28;25075;-50
2022/03/17 10:39:11;;;;;;;42.80;38.40;;;;;;;;;;4971972;28;24401;-52
2022/03/17 10:41:40;;;;;;;42.97;38.33;;;;;;;;;;4971865;28;24757;-53
2022/03/17 10:44:09;;;;;;;45.08;40.28;;;;;;;;;;4970617;28;24410;-50
2022/03/17 10:46:34;;;;;;;43.88;39.45;;;;;;;;;;4972012;28;24432;-50
2022/03/17 10:48:59;;;;;;;40.40;36.30;;;;;;;;;;4971668;28;24503;-51
2022/03/17 10:51:37;;;;;;;42.70;38.40;;;;;;;;;;4959677;28;25273;-51
2022/03/17 10:54:03;;;;;;;37.60;33.75;;;;;;;;;;4953069;28;24813;-51
2022/03/17 10:56:28;;;;;;;40.00;35.77;;;;;;;;;;4971617;28;24449;-51
2022/03/17 10:58:53;;;;;;;38.90;34.90;;;;;;;;;;4971900;28;24460;-50
2022/03/17 11:01:33;;;;;;;37.53;33.83;;;;;;;;;;4971047;28;24441;-52
2022/03/17 11:03:58;;;;;;;38.63;34.53;;;;;;;;;;4971636;28;24401;-51
2022/03/17 11:06:24;;;;;;;40.78;36.67;;;;;;;;;;4970232;28;24421;-51
2022/03/17 11:08:50;;;;;;;36.73;32.93;;;;;;;;;;4971448;28;24413;-52
2022/03/17 11:11:15;;;;;;;37.57;33.67;;;;;;;;;;4971249;28;24405;-51
2022/03/17 11:13:42;;;;;;;40.35;36.25;;;;;;;;;;4971115;28;24920;-51
2022/03/17 11:16:08;;;;;;;37.27;33.37;;;;;;;;;;4969847;28;24424;-51
2022/03/17 11:18:36;;;;;;;37.53;33.80;;;;;;;;;;4971314;28;24424;-51
2022/03/17 11:21:21;;;;;;;38.42;34.42;;;;;;;;;;4970995;28;24413;-52
2022/03/17 11:23:56;;;;;;;35.50;32.00;;;;;;;;;;4973131;28;24947;-50
2022/03/17 11:26:28;;;;;;;37.95;34.05;;;;;;;;;;4968483;28;25026;-52
2022/03/17 11:28:57;;;;;;;37.40;33.53;;;;;;;;;;4956962;28;24433;-51
2022/03/17 11:31:24;;;;;;;34.40;30.83;;;;;;;;;;4970492;28;24513;-51
2022/03/17 11:33:56;;;;;;;35.65;31.98;;;;;;;;;;4970414;28;24493;-51
2022/03/17 11:36:24;;;;;;;33.65;29.95;;;;;;;;;;4971016;28;24414;-51
2022/03/17 11:38:56;;;;;;;32.80;29.50;;;;;;;;;;4965511;28;24425;-51
2022/03/17 11:41:21;;;;;;;34.38;30.88;;;;;;;;;;4951501;28;24406;-51
2022/03/17 11:43:46;;;;;;;31.30;28.10;;;;;;;;;;4951380;28;24510;-51
2022/03/17 11:46:11;;;;;;;34.15;30.75;;;;;;;;;;4951408;28;24413;-51
2022/03/17 11:48:37;;;;;;;34.92;31.33;;;;;;;;;;4951376;29;24429;-51
2022/03/17 11:51:06;;;;;;;33.80;29.63;;;;;;;;;;4969000;28;24525;-51
2022/03/17 11:53:38;;;;;;;33.58;30.17;;;;;;;;;;4970192;28;24583;-51
2022/03/17 11:56:05;;;;;;;34.08;30.67;;;;;;;;;;4970525;28;24402;-56
2022/03/17 11:58:39;;;;;;;32.70;29.30;;;;;;;;;;4970519;28;25121;-52
2022/03/17 12:01:27;;;;;;;31.67;28.58;;;;;;;;;;4969378;28;24480;-52
2022/03/17 12:03:54;;;;;;;30.20;27.15;;;;;;;;;;4970658;28;24444;-51
2022/03/17 12:06:20;;;;;;;29.70;26.70;;;;;;;;;;4970606;28;24398;-50
2022/03/17 12:09:02;;;;;;;28.58;25.63;;;;;;;;;;4970003;28;24425;-50
2022/03/17 12:11:27;;;;;;;28.30;25.30;;;;;;;;;;4957368;28;24474;-50
2022/03/17 12:14:13;;;;;;;30.00;26.90;;;;;;;;;;4950888;28;24386;-50
2022/03/17 12:16:43;;;;;;;29.92;27.02;;;;;;;;;;4950920;28;24932;-50
2022/03/17 12:19:08;;;;;;;30.48;27.38;;;;;;;;;;4950637;28;24660;-50
2022/03/17 12:21:52;;;;;;;26.87;24.17;;;;;;;;;;4952133;28;25080;-50
2022/03/17 12:24:47;;;;;;;30.40;27.50;;;;;;;;;;4950507;29;24485;-50
2022/03/17 12:27:23;;;;;;;30.05;27.08;;;;;;;;;;4956644;28;24425;-50
2022/03/17 12:29:59;;;;;;;29.10;26.10;;;;;;;;;;4950637;28;24951;-50
2022/03/17 12:32:25;;;;;;;28.02;25.23;;;;;;;;;;4962155;28;24995;-50
2022/03/17 12:34:51;;;;;;;25.25;22.92;;;;;;;;;;4970149;28;24392;-51
2022/03/17 12:37:17;;;;;;;24.80;22.30;;;;;;;;;;4969817;28;24451;-50
2022/03/17 12:39:47;;;;;;;25.63;23.13;;;;;;;;;;4970222;28;24460;-51
2022/03/17 12:42:13;;;;;;;25.98;23.48;;;;;;;;;;4966468;28;24445;-51
2022/03/17 12:44:46;;;;;;;24.77;22.38;;;;;;;;;;4968127;28;24401;-51
2022/03/17 12:47:12;;;;;;;24.25;21.75;;;;;;;;;;4970172;28;24433;-51
2022/03/17 12:49:37;;;;;;;22.92;20.63;;;;;;;;;;4969738;28;24425;-51
2022/03/17 12:52:12;;;;;;;23.20;20.90;;;;;;;;;;4967897;28;25038;-51
2022/03/17 12:54:37;;;;;;;26.10;23.57;;;;;;;;;;4948632;28;24396;-51
2022/03/17 12:57:03;;;;;;;25.60;23.10;;;;;;;;;;4950424;28;24842;-51
2022/03/17 12:59:29;;;;;;;25.80;23.20;;;;;;;;;;4950495;28;24426;-50
2022/03/17 13:01:55;;;;;;;22.88;20.77;;;;;;;;;;4950174;28;24393;-51
2022/03/17 13:04:20;;;;;;;23.55;21.05;;;;;;;;;;4962322;28;24797;-51
2022/03/17 13:06:55;;;;;;;26.63;23.80;;;;;;;;;;4969071;28;24485;-51
2022/03/17 13:09:25;;;;;;;24.48;21.98;;;;;;;;;;4969332;28;24422;-51
2022/03/17 13:14:41;;;;;;;25.05;22.65;;;;;;;;;;4967670;28;24421;-51
2022/03/17 13:17:07;;;;;;;24.90;22.30;;;;;;;;;;4969187;28;24757;-51
2022/03/17 13:19:45;;;;;;;23.42;20.98;;;;;;;;;;4969305;28;24480;-51
2022/03/17 13:22:10;;;;;;;24.85;22.25;;;;;;;;;;4968734;28;25015;-51
2022/03/17 13:24:35;;;;;;;25.20;22.80;;;;;;;;;;4967625;28;24517;-50
2022/03/17 13:27:00;;;;;;;24.67;22.27;;;;;;;;;;4969138;28;24955;-50
2022/03/17 13:29:26;;;;;;;27.23;24.50;;;;;;;;;;4968832;28;24437;-50
2022/03/17 13:31:51;;;;;;;25.97;23.43;;;;;;;;;;4969057;28;24429;-51
2022/03/17 13:34:36;;;;;;;26.33;23.57;;;;;;;;;;4968335;28;24402;-51
2022/03/17 13:37:08;;;;;;;26.55;23.95;;;;;;;;;;4969066;28;24425;-51
2022/03/17 13:39:34;;;;;;;27.50;24.80;;;;;;;;;;4969174;28;25169;-50
2022/03/17 13:42:03;;;;;;;25.02;22.52;;;;;;;;;;4968776;28;24397;-51
2022/03/17 13:44:41;;;;;;;25.88;23.27;;;;;;;;;;4969084;28;24485;-51
2022/03/17 13:47:14;;;;;;;24.55;22.10;;;;;;;;;;4966364;28;25014;-51
2022/03/17 13:49:40;;;;;;;26.27;23.67;;;;;;;;;;4966454;28;24469;-51
2022/03/17 13:52:05;;;;;;;26.57;23.87;;;;;;;;;;4949199;28;24432;-51
2022/03/17 13:54:37;;;;;;;26.67;23.97;;;;;;;;;;4948919;28;24886;-50
2022/03/17 13:57:03;;;;;;;25.85;23.25;;;;;;;;;;4949025;28;24406;-51
2022/03/17 13:59:28;;;;;;;26.57;24.07;;;;;;;;;;4949738;28;24976;-51
2022/03/17 14:02:12;;;;;;;27.87;25.07;;;;;;;;;;4964409;28;24417;-50
2022/03/17 14:04:37;;;;;;;28.40;25.55;;;;;;;;;;4968298;28;25162;-50
2022/03/17 14:07:02;;;;;;;26.23;23.33;;;;;;;;;;4968836;28;24502;-51
2022/03/17 14:09:28;;;;;;;27.63;24.83;;;;;;;;;;4968474;28;24817;-51
2022/03/17 14:11:53;;;;;;;27.38;24.52;;;;;;;;;;4966755;28;24412;-51
2022/03/17 14:14:20;;;;;;;26.02;23.33;;;;;;;;;;4968591;28;24429;-51
2022/03/17 14:16:47;;;;;;;28.75;25.90;;;;;;;;;;4968222;28;24440;-51
2022/03/17 14:19:14;;;;;;;27.88;25.08;;;;;;;;;;4968358;28;24417;-52
2022/03/17 14:24:10;;;;;;;27.58;24.88;;;;;;;;;;4966329;28;24452;-51
2022/03/17 14:24:28;;;;;;;26.08;23.38;;;;;;;;;;4967800;28;24412;-51
2022/03/17 14:26:54;;;;;;;26.58;23.88;;;;;;;;;;4968464;28;24401;-51
2022/03/17 14:29:20;;;;;;;27.40;24.60;;;;;;;;;;4968384;28;24426;-50